createdAt,value
2023-01-21T00:00:38.295Z,96450.00
2023-01-21T00:04:44.759Z,96453.00
2023-01-21T00:08:48.089Z,96455.00
2023-01-21T00:12:52.939Z,96464.00
2023-01-21T00:16:56.032Z,96459.00
2023-01-21T00:21:17.011Z,96460.00
2023-01-21T00:25:20.661Z,96458.00
2023-01-21T00:29:30.963Z,96459.00
2023-01-21T00:33:35.935Z,96467.00
2023-01-21T00:37:42.876Z,96470.00
2023-01-21T00:41:48.040Z,96470.00
2023-01-21T00:45:51.659Z,96467.00
2023-01-21T00:49:55.167Z,96477.00
2023-01-21T00:54:04.473Z,96484.00
2023-01-21T00:58:07.915Z,96470.00
2023-01-21T01:02:14.385Z,96470.00
2023-01-21T01:06:19.600Z,96468.00
2023-01-21T01:10:24.645Z,96476.00
2023-01-21T01:14:33.517Z,96473.00
2023-01-21T01:18:44.000Z,96472.00
2023-01-21T01:22:54.359Z,96478.00
2023-01-21T01:27:02.870Z,96483.00
2023-01-21T01:31:09.234Z,96483.00
2023-01-21T01:35:18.187Z,96490.00
2023-01-21T01:39:21.374Z,96490.00
2023-01-21T01:43:30.173Z,96490.00
2023-01-21T01:47:39.366Z,96492.00
2023-01-21T01:51:49.143Z,96493.00
2023-01-21T01:55:55.255Z,96489.00
2023-01-21T02:00:02.358Z,96493.00
2023-01-21T02:04:09.739Z,96494.00
2023-01-21T02:08:13.385Z,96504.00
2023-01-21T02:12:18.216Z,96497.00
2023-01-21T02:16:52.078Z,96497.00
2023-01-21T02:21:46.859Z,96502.00
2023-01-21T02:26:16.959Z,96502.00
2023-01-21T02:30:53.005Z,96504.00
2023-01-21T02:35:03.504Z,96512.00
2023-01-21T02:39:13.600Z,96506.00
2023-01-21T02:43:29.413Z,96505.00
2023-01-21T02:47:39.339Z,96508.00
2023-01-21T02:51:50.635Z,96520.00
2023-01-21T02:55:54.209Z,96518.00
2023-01-21T03:00:00.391Z,96516.00
2023-01-21T03:04:33.080Z,96518.00
2023-01-21T03:08:46.862Z,96523.00
2023-01-21T03:13:00.641Z,96513.00
2023-01-21T03:17:08.607Z,96504.00
2023-01-21T03:21:16.562Z,96508.00
2023-01-21T03:25:22.293Z,96510.00
2023-01-21T03:29:36.390Z,96501.00
2023-01-21T03:33:46.868Z,96502.00
2023-01-21T03:37:58.999Z,96496.00
2023-01-21T03:42:05.776Z,96500.00
2023-01-21T03:46:13.547Z,96486.00
2023-01-21T03:50:23.752Z,96483.00
2023-01-21T03:54:26.816Z,96490.00
2023-01-21T03:58:35.913Z,96477.00
2023-01-21T04:02:39.292Z,96484.00
2023-01-21T04:06:42.404Z,96483.00
2023-01-21T04:10:51.825Z,96473.00
2023-01-21T04:14:58.545Z,96478.00
2023-01-21T04:19:02.165Z,96475.00
2023-01-21T04:23:07.316Z,96483.00
2023-01-21T04:27:14.717Z,96497.00
2023-01-21T04:31:21.645Z,96484.00
2023-01-21T04:35:26.325Z,96495.00
2023-01-21T04:39:37.367Z,96495.00
2023-01-21T04:43:43.629Z,96492.00
2023-01-21T04:47:49.320Z,96506.00
2023-01-21T04:51:54.028Z,96500.00
2023-01-21T04:55:59.785Z,96506.00
2023-01-21T05:00:06.659Z,96506.00
2023-01-21T05:04:12.001Z,96489.00
2023-01-21T05:08:16.303Z,96505.00
2023-01-21T05:12:21.976Z,96496.00
2023-01-21T05:16:26.285Z,96504.00
2023-01-21T05:20:31.995Z,96513.00
2023-01-21T05:24:41.484Z,96502.00
2023-01-21T05:28:49.993Z,96501.00
2023-01-21T05:32:53.641Z,96502.00
2023-01-21T05:36:59.238Z,96496.00
2023-01-21T05:41:05.509Z,96508.00
2023-01-21T05:45:15.569Z,96504.00
2023-01-21T05:49:19.900Z,96502.00
2023-01-21T05:53:33.225Z,96497.00
2023-01-21T05:57:37.733Z,96494.00
2023-01-21T06:01:54.402Z,96504.00
2023-01-21T06:06:00.501Z,96500.00
2023-01-21T06:10:06.493Z,96500.00
2023-01-21T06:14:10.771Z,96498.00
2023-01-21T06:18:16.369Z,96500.00
2023-01-21T06:22:21.984Z,96509.00
2023-01-21T06:26:27.284Z,96505.00
2023-01-21T06:30:32.110Z,96508.00
2023-01-21T06:34:39.049Z,96516.00
2023-01-21T06:38:45.490Z,96523.00
2023-01-21T06:42:56.421Z,96519.00
2023-01-21T06:47:01.159Z,96517.00
2023-01-21T06:51:05.396Z,96527.00
2023-01-21T06:55:09.248Z,96527.00
2023-01-21T06:59:14.117Z,96527.00
2023-01-21T07:03:22.944Z,96537.00
2023-01-21T07:07:26.287Z,96538.00
2023-01-21T07:11:29.654Z,96529.00
2023-01-21T07:15:39.385Z,96535.00
2023-01-21T07:19:43.559Z,96534.00
2023-01-21T07:23:49.484Z,96542.00
2023-01-21T07:27:54.818Z,96541.00
2023-01-21T07:32:00.492Z,96547.00
2023-01-21T07:36:03.849Z,96556.00
2023-01-21T07:40:12.297Z,96560.00
2023-01-21T07:44:15.693Z,96559.00
2023-01-21T07:48:21.927Z,96554.00
2023-01-21T07:52:29.684Z,96563.00
2023-01-21T07:56:36.520Z,96563.00
2023-01-21T08:00:42.625Z,96570.00
2023-01-21T08:04:48.093Z,96572.00
2023-01-21T08:08:53.948Z,96559.00
2023-01-21T08:13:02.248Z,96562.00
2023-01-21T08:17:05.631Z,96572.00
2023-01-21T08:21:10.130Z,96573.00
2023-01-21T08:25:13.678Z,96578.00
2023-01-21T08:29:17.301Z,96586.00
2023-01-21T08:33:20.460Z,96587.00
2023-01-21T08:37:26.378Z,96587.00
2023-01-21T08:41:35.307Z,96592.00
2023-01-21T08:45:40.348Z,96586.00
2023-01-21T08:49:45.986Z,96589.00
2023-01-21T08:53:51.850Z,96583.00
2023-01-21T08:58:01.690Z,96596.00
2023-01-21T09:02:08.745Z,96597.00
2023-01-21T09:06:13.232Z,96605.00
2023-01-21T09:10:48.624Z,96598.00
2023-01-21T09:14:51.712Z,96610.00
2023-01-21T09:18:57.474Z,96610.00
2023-01-21T09:23:01.586Z,96609.00
2023-01-21T09:27:08.314Z,96604.00
2023-01-21T09:31:15.166Z,96608.00
2023-01-21T09:35:23.951Z,96607.00
2023-01-21T09:39:33.235Z,96618.00
2023-01-21T09:43:46.158Z,96618.00
2023-01-21T09:47:56.889Z,96614.00
2023-01-21T09:52:07.787Z,96618.00
2023-01-21T09:56:20.309Z,96622.00
2023-01-21T10:00:39.119Z,96618.00
2023-01-21T10:04:49.906Z,96618.00
2023-01-21T10:09:23.844Z,96617.00
2023-01-21T10:13:38.152Z,96616.00
2023-01-21T10:17:53.541Z,96608.00
2023-01-21T10:22:01.842Z,96617.00
2023-01-21T10:26:15.538Z,96610.00
2023-01-21T10:30:28.729Z,96613.00
2023-01-21T10:34:42.541Z,96615.00
2023-01-21T10:38:56.522Z,96614.00
2023-01-21T10:43:06.207Z,96613.00
2023-01-21T10:47:21.239Z,96600.00
2023-01-21T10:51:32.359Z,96609.00
2023-01-21T10:55:47.913Z,96612.00
2023-01-21T10:59:52.580Z,96589.00
2023-01-21T11:03:58.584Z,96591.00
2023-01-21T11:08:04.592Z,96582.00
2023-01-21T11:12:11.083Z,96591.00
2023-01-21T11:16:14.172Z,96585.00
2023-01-21T11:20:27.896Z,96574.00
2023-01-21T11:24:44.763Z,96579.00
2023-01-21T11:28:50.266Z,96578.00
2023-01-21T11:32:55.279Z,96579.00
2023-01-21T11:37:04.235Z,96583.00
2023-01-21T11:41:25.767Z,96571.00
2023-01-21T11:45:35.408Z,96577.00
2023-01-21T11:49:48.358Z,96568.00
2023-01-21T11:54:08.783Z,96561.00
2023-01-21T11:58:23.398Z,96557.00
2023-01-21T12:02:30.388Z,96563.00
2023-01-21T12:06:37.038Z,96555.00
2023-01-21T12:10:45.402Z,96560.00
2023-01-21T12:14:54.735Z,96557.00
2023-01-21T12:19:24.973Z,96564.00
2023-01-21T12:23:46.387Z,96551.00
2023-01-21T12:28:02.416Z,96543.00
2023-01-21T12:32:12.778Z,96546.00
2023-01-21T12:36:27.780Z,96544.00
2023-01-21T12:40:37.406Z,96548.00
2023-01-21T12:44:48.473Z,96548.00
2023-01-21T12:48:58.727Z,96540.00
2023-01-21T12:53:17.913Z,96535.00
2023-01-21T12:57:28.910Z,96542.00
2023-01-21T13:01:50.859Z,96546.00
2023-01-21T13:06:01.897Z,96536.00
2023-01-21T13:10:16.165Z,96540.00
2023-01-21T13:14:29.751Z,96538.00
2023-01-21T13:18:36.364Z,96539.00
2023-01-21T13:22:48.649Z,96532.00
2023-01-21T13:27:05.273Z,96535.00
2023-01-21T13:31:19.886Z,96542.00
2023-01-21T13:35:32.928Z,96538.00
2023-01-21T13:39:50.129Z,96544.00
2023-01-21T13:44:12.408Z,96553.00
2023-01-21T13:48:44.303Z,96543.00
2023-01-21T13:53:09.117Z,96560.00
2023-01-21T13:57:33.298Z,96558.00
2023-01-21T14:01:45.680Z,96559.00
2023-01-21T14:05:54.541Z,96560.00
2023-01-21T14:10:07.912Z,96556.00
2023-01-21T14:14:54.395Z,96571.00
2023-01-21T14:19:22.383Z,96567.00
2023-01-21T14:23:51.097Z,96574.00
2023-01-21T14:28:08.886Z,96573.00
2023-01-21T14:32:20.746Z,96571.00
2023-01-21T14:36:34.136Z,96572.00
2023-01-21T14:40:46.581Z,96572.00
2023-01-21T14:45:05.412Z,96574.00
2023-01-21T14:49:12.640Z,96579.00
2023-01-21T14:53:21.339Z,96580.00
2023-01-21T14:57:34.533Z,96583.00
2023-01-21T15:01:44.043Z,96594.00
2023-01-21T15:05:54.507Z,96594.00
2023-01-21T15:10:03.091Z,96593.00
2023-01-21T15:14:13.715Z,96588.00
2023-01-21T15:18:44.713Z,96585.00
2023-01-21T15:23:06.457Z,96588.00
2023-01-21T15:27:20.301Z,96597.00
2023-01-21T15:31:44.635Z,96589.00
2023-01-21T15:35:52.897Z,96592.00
2023-01-21T15:40:04.851Z,96597.00
2023-01-21T15:44:38.571Z,96605.00
2023-01-21T15:49:15.892Z,96605.00
2023-01-21T15:53:53.169Z,96602.00
2023-01-21T15:58:10.670Z,96597.00
2023-01-21T16:02:23.104Z,96608.00
2023-01-21T16:06:48.992Z,96613.00
2023-01-21T16:11:13.815Z,96598.00
2023-01-21T16:15:29.095Z,96608.00
2023-01-21T16:19:40.912Z,96614.00
2023-01-21T16:23:51.582Z,96608.00
2023-01-21T16:27:56.721Z,96611.00
2023-01-21T16:32:03.351Z,96604.00
2023-01-21T16:36:09.124Z,96618.00
2023-01-21T16:40:30.873Z,96602.00
2023-01-21T16:44:35.397Z,96628.00
2023-01-21T16:48:40.256Z,96620.00
2023-01-21T16:52:48.718Z,96623.00
2023-01-21T16:56:58.386Z,96622.00
2023-01-21T17:01:11.626Z,96624.00
2023-01-21T17:05:17.581Z,96622.00
2023-01-21T17:09:27.616Z,96626.00
2023-01-21T17:13:32.595Z,96628.00
2023-01-21T17:17:38.033Z,96628.00
2023-01-21T17:21:47.348Z,96618.00
2023-01-21T17:25:59.375Z,96629.00
2023-01-21T17:30:42.222Z,96632.00
2023-01-21T17:35:07.118Z,96629.00
2023-01-21T17:39:12.886Z,96631.00
2023-01-21T17:43:24.425Z,96646.00
2023-01-21T17:47:33.372Z,96644.00
2023-01-21T17:51:41.666Z,96645.00
2023-01-21T17:55:57.590Z,96650.00
2023-01-21T18:00:01.194Z,96658.00
2023-01-21T18:04:15.423Z,96659.00
2023-01-21T18:08:43.804Z,96654.00
2023-01-21T18:12:50.928Z,96665.00
2023-01-21T18:16:56.526Z,96661.00
2023-01-21T18:21:03.201Z,96655.00
2023-01-21T18:25:09.895Z,96650.00
2023-01-21T18:29:17.487Z,96647.00
2023-01-21T18:33:23.867Z,96648.00
2023-01-21T18:37:30.640Z,96645.00
2023-01-21T18:41:36.347Z,96646.00
2023-01-21T18:45:43.259Z,96642.00
2023-01-21T18:49:51.903Z,96646.00
2023-01-21T18:53:57.304Z,96642.00
2023-01-21T18:58:03.556Z,96647.00
2023-01-21T19:02:17.506Z,96632.00
2023-01-21T19:06:25.729Z,96643.00
2023-01-21T19:10:31.731Z,96635.00
2023-01-21T19:14:35.648Z,96642.00
2023-01-21T19:18:50.709Z,96645.00
2023-01-21T19:22:56.155Z,96636.00
2023-01-21T19:27:02.626Z,96636.00
2023-01-21T19:31:09.073Z,96637.00
2023-01-21T19:35:18.282Z,96636.00
2023-01-21T19:39:25.502Z,96640.00
2023-01-21T19:43:30.646Z,96635.00
2023-01-21T19:47:38.253Z,96643.00
2023-01-21T19:51:42.523Z,96647.00
2023-01-21T19:55:47.086Z,96647.00
2023-01-21T19:59:54.535Z,96642.00
2023-01-21T20:04:00.631Z,96648.00
2023-01-21T20:08:05.781Z,96651.00
2023-01-21T20:12:10.389Z,96645.00
2023-01-21T20:16:17.216Z,96646.00
2023-01-21T20:20:22.554Z,96649.00
2023-01-21T20:24:30.198Z,96647.00
2023-01-21T20:28:40.064Z,96656.00
2023-01-21T20:32:43.767Z,96650.00
2023-01-21T20:36:48.961Z,96653.00
2023-01-21T20:40:53.361Z,96654.00
2023-01-21T20:44:56.411Z,96667.00
2023-01-21T20:49:00.168Z,96669.00
2023-01-21T20:53:11.921Z,96659.00
2023-01-21T20:57:18.766Z,96664.00
2023-01-21T21:01:25.284Z,96667.00
2023-01-21T21:05:29.823Z,96665.00
2023-01-21T21:09:40.146Z,96664.00
2023-01-21T21:13:46.480Z,96665.00
2023-01-21T21:18:07.620Z,96664.00
2023-01-21T21:22:10.484Z,96659.00
2023-01-21T21:26:24.446Z,96664.00
2023-01-21T21:30:38.247Z,96663.00
2023-01-21T21:34:43.935Z,96665.00
2023-01-21T21:38:55.784Z,96671.00
2023-01-21T21:43:16.955Z,96669.00
2023-01-21T21:47:38.801Z,96668.00
2023-01-21T21:51:43.071Z,96678.00
2023-01-21T21:55:48.199Z,96678.00
2023-01-21T21:59:51.302Z,96674.00
2023-01-21T22:03:59.502Z,96671.00
2023-01-21T22:08:03.719Z,96666.00
2023-01-21T22:12:07.346Z,96669.00
2023-01-21T22:16:15.997Z,96673.00
2023-01-21T22:20:23.044Z,96673.00
2023-01-21T22:24:25.871Z,96679.00
2023-01-21T22:28:37.004Z,96682.00
2023-01-21T22:32:42.244Z,96685.00
2023-01-21T22:36:48.744Z,96686.00
2023-01-21T22:41:00.939Z,96681.00
2023-01-21T22:45:13.005Z,96677.00
2023-01-21T22:49:18.997Z,96669.00
2023-01-21T22:53:23.834Z,96675.00
2023-01-21T22:57:26.650Z,96681.00
2023-01-21T23:01:36.516Z,96673.00
2023-01-21T23:05:39.534Z,96670.00
2023-01-21T23:09:44.982Z,96664.00
2023-01-21T23:13:52.771Z,96664.00
2023-01-21T23:17:56.085Z,96665.00
2023-01-21T23:22:00.379Z,96664.00
2023-01-21T23:26:09.286Z,96660.00
2023-01-21T23:30:16.641Z,96661.00
2023-01-21T23:34:23.651Z,96657.00
2023-01-21T23:38:26.889Z,96655.00
2023-01-21T23:42:33.820Z,96641.00
2023-01-21T23:46:38.995Z,96647.00
2023-01-21T23:50:41.798Z,96635.00
2023-01-21T23:54:47.011Z,96629.00
2023-01-21T23:58:52.027Z,96629.00
